createdAt,value
2017-10-09T00:04:52.138Z,5.57
2017-10-09T00:07:21.895Z,6.10
2017-10-09T00:09:49.847Z,5.00
2017-10-09T00:12:17.515Z,5.25
2017-10-09T00:14:45.255Z,5.20
2017-10-09T00:17:14.466Z,5.30
2017-10-09T00:19:42.220Z,5.85
2017-10-09T00:22:09.794Z,4.40
2017-10-09T00:24:37.349Z,5.35
2017-10-09T00:27:06.476Z,5.45
2017-10-09T00:29:34.051Z,5.22
2017-10-09T00:32:01.681Z,5.18
2017-10-09T00:34:29.216Z,5.03
2017-10-09T00:36:57.075Z,6.00
2017-10-09T00:39:24.591Z,5.45
2017-10-09T00:41:52.043Z,5.97
2017-10-09T00:44:19.509Z,4.87
2017-10-09T00:49:30.904Z,5.75
2017-10-09T00:51:59.012Z,5.22
2017-10-09T00:54:27.924Z,5.18
2017-10-09T00:56:56.294Z,5.47
2017-10-09T00:59:23.761Z,5.80
2017-10-09T01:01:51.299Z,6.10
2017-10-09T01:04:18.953Z,5.53
2017-10-09T01:06:46.484Z,6.32
2017-10-09T01:09:14.509Z,6.93
2017-10-09T01:11:42.887Z,6.65
2017-10-09T01:14:12.087Z,5.57
2017-10-09T01:16:40.363Z,7.65
2017-10-09T01:19:08.554Z,5.62
2017-10-09T01:21:36.663Z,5.93
2017-10-09T01:24:05.083Z,6.75
2017-10-09T01:26:33.507Z,6.18
2017-10-09T01:29:01.355Z,6.45
2017-10-09T01:31:29.157Z,6.20
2017-10-09T01:33:57.482Z,7.10
2017-10-09T01:36:27.584Z,6.28
2017-10-09T01:38:57.810Z,6.80
2017-10-09T01:41:26.226Z,6.75
2017-10-09T01:43:55.071Z,6.90
2017-10-09T01:46:23.404Z,7.05
2017-10-09T01:48:51.681Z,5.90
2017-10-09T01:51:20.159Z,6.25
2017-10-09T01:53:48.537Z,7.10
2017-10-09T01:56:19.179Z,7.22
2017-10-09T01:58:47.770Z,7.68
2017-10-09T02:01:16.049Z,6.70
2017-10-09T02:03:44.703Z,7.85
2017-10-09T02:06:12.777Z,6.53
2017-10-09T02:08:40.753Z,7.25
2017-10-09T02:11:08.673Z,9.02
2017-10-09T02:13:38.287Z,7.75
2017-10-09T02:16:06.731Z,6.80
2017-10-09T02:18:35.864Z,7.20
2017-10-09T02:21:04.072Z,7.97
2017-10-09T02:23:32.233Z,8.48
2017-10-09T02:25:59.934Z,9.60
2017-10-09T02:28:27.467Z,8.70
2017-10-09T02:30:55.446Z,7.10
2017-10-09T02:33:23.570Z,8.77
2017-10-09T02:35:52.611Z,9.30
2017-10-09T02:38:20.494Z,8.45
2017-10-09T02:40:49.424Z,8.15
2017-10-09T02:43:17.435Z,8.68
2017-10-09T02:45:45.879Z,7.97
2017-10-09T02:48:13.975Z,8.35
2017-10-09T02:50:42.217Z,8.43
2017-10-09T02:53:10.434Z,7.50
2017-10-09T02:55:39.554Z,7.70
2017-10-09T02:58:08.289Z,7.95
2017-10-09T03:00:37.876Z,8.40
2017-10-09T03:03:06.986Z,8.35
2017-10-09T03:05:34.643Z,7.97
2017-10-09T03:08:03.341Z,9.15
2017-10-09T03:10:31.250Z,10.07
2017-10-09T03:12:59.735Z,10.05
2017-10-09T03:15:27.432Z,8.82
2017-10-09T03:17:55.002Z,8.43
2017-10-09T03:20:23.448Z,9.15
2017-10-09T03:22:52.483Z,8.10
2017-10-09T03:25:20.986Z,8.32
2017-10-09T03:28:03.484Z,7.60
2017-10-09T03:30:31.577Z,7.90
2017-10-09T03:32:59.434Z,7.72
2017-10-09T03:35:28.766Z,7.40
2017-10-09T03:37:56.587Z,7.10
2017-10-09T03:40:24.501Z,8.40
2017-10-09T03:42:52.303Z,6.22
2017-10-09T03:45:19.941Z,7.90
2017-10-09T03:47:48.598Z,7.12
2017-10-09T03:50:16.145Z,6.68
2017-10-09T03:52:43.681Z,6.72
2017-10-09T03:55:11.212Z,7.35
2017-10-09T03:57:38.662Z,7.57
2017-10-09T04:00:07.091Z,7.40
2017-10-09T04:02:34.634Z,7.60
2017-10-09T04:05:02.144Z,7.25
2017-10-09T04:07:29.637Z,6.60
2017-10-09T04:09:57.104Z,6.90
2017-10-09T04:12:24.570Z,7.80
2017-10-09T04:14:52.811Z,6.57
2017-10-09T04:17:20.270Z,8.27
2017-10-09T04:19:47.727Z,7.32
2017-10-09T04:22:15.844Z,6.57
2017-10-09T04:24:44.171Z,6.47
2017-10-09T04:27:12.968Z,6.82
2017-10-09T04:29:41.742Z,6.30
2017-10-09T04:32:10.060Z,5.97
2017-10-09T04:34:38.712Z,5.95
2017-10-09T04:37:07.379Z,5.70
2017-10-09T04:39:35.756Z,6.40
2017-10-09T04:42:14.066Z,5.62
2017-10-09T04:44:44.749Z,6.68
2017-10-09T04:53:32.613Z,5.82
2017-10-09T04:56:09.001Z,7.00
2017-10-09T04:58:36.869Z,6.47
2017-10-09T05:01:05.039Z,6.68
2017-10-09T05:03:32.551Z,6.12
2017-10-09T05:06:01.790Z,6.70
2017-10-09T05:08:29.254Z,6.00
2017-10-09T05:10:56.710Z,6.05
2017-10-09T05:13:24.240Z,6.15
2017-10-09T05:15:51.834Z,5.65
2017-10-09T05:18:19.336Z,6.05
2017-10-09T05:20:46.925Z,5.62
2017-10-09T05:23:16.058Z,4.78
2017-10-09T05:25:44.251Z,5.00
2017-10-09T05:28:11.765Z,5.62
2017-10-09T05:30:39.237Z,5.32
2017-10-09T05:33:06.736Z,5.90
2017-10-09T05:35:34.221Z,7.03
2017-10-09T05:38:02.755Z,6.90
2017-10-09T05:40:30.228Z,6.80
2017-10-09T05:42:57.735Z,6.65
2017-10-09T05:45:25.264Z,7.15
2017-10-09T05:47:52.750Z,6.47
2017-10-09T05:50:20.675Z,7.50
2017-10-09T05:52:48.146Z,8.10
2017-10-09T05:55:15.635Z,7.62
2017-10-09T05:57:43.849Z,6.85
2017-10-09T06:00:11.479Z,6.30
2017-10-09T06:02:39.385Z,6.43
2017-10-09T06:05:06.957Z,7.10
2017-10-09T06:07:34.547Z,7.68
2017-10-09T06:10:02.187Z,7.72
2017-10-09T06:12:29.794Z,7.72
2017-10-09T06:14:57.325Z,8.45
2017-10-09T06:17:25.613Z,8.30
2017-10-09T06:19:53.286Z,9.70
2017-10-09T06:22:20.824Z,8.00
2017-10-09T06:24:48.579Z,9.15
2017-10-09T06:27:16.403Z,8.43
2017-10-09T06:29:44.244Z,9.13
2017-10-09T06:32:12.693Z,9.40
2017-10-09T06:34:40.242Z,8.27
2017-10-09T06:37:08.141Z,8.35
2017-10-09T06:39:35.787Z,8.63
2017-10-09T06:42:03.658Z,8.68
2017-10-09T06:44:32.136Z,7.80
2017-10-09T06:46:59.995Z,7.80
2017-10-09T06:49:28.066Z,8.38
2017-10-09T06:51:55.689Z,7.20
2017-10-09T06:54:23.192Z,7.03
2017-10-09T06:56:52.901Z,7.95
2017-10-09T06:59:20.927Z,6.82
2017-10-09T07:01:48.797Z,7.65
2017-10-09T07:04:16.575Z,7.30
2017-10-09T07:06:45.820Z,6.30
2017-10-09T07:09:13.361Z,6.93
2017-10-09T07:11:40.937Z,6.62
2017-10-09T07:14:08.579Z,6.90
2017-10-09T07:16:36.568Z,6.68
2017-10-09T07:19:04.466Z,5.70
2017-10-09T07:21:32.188Z,6.32
2017-10-09T07:24:00.078Z,6.50
2017-10-09T07:26:27.966Z,6.03
2017-10-09T07:28:56.074Z,6.37
2017-10-09T07:31:25.391Z,7.60
2017-10-09T07:33:54.262Z,6.10
2017-10-09T07:36:22.310Z,6.30
2017-10-09T07:38:50.922Z,6.00
2017-10-09T07:41:18.857Z,5.57
2017-10-09T07:43:46.715Z,6.68
2017-10-09T07:46:15.309Z,6.12
2017-10-09T07:48:43.999Z,5.45
2017-10-09T07:51:12.265Z,5.32
2017-10-09T07:53:39.900Z,4.65
2017-10-09T07:56:08.534Z,6.12
2017-10-09T07:58:36.871Z,4.50
2017-10-09T08:01:04.810Z,5.30
2017-10-09T08:03:32.347Z,4.32
2017-10-09T08:05:59.814Z,5.05
2017-10-09T08:08:27.309Z,5.00
2017-10-09T08:10:54.782Z,4.47
2017-10-09T08:13:22.264Z,4.35
2017-10-09T08:15:49.745Z,3.97
2017-10-09T08:18:17.267Z,4.70
2017-10-09T08:20:44.730Z,4.85
2017-10-09T08:23:12.209Z,4.60
2017-10-09T08:25:39.665Z,4.55
2017-10-09T08:28:07.349Z,4.45
2017-10-09T08:30:34.961Z,3.97
2017-10-09T08:33:02.522Z,4.07
2017-10-09T08:35:30.063Z,3.97
2017-10-09T08:37:57.530Z,3.45
2017-10-09T08:40:25.050Z,5.65
2017-10-09T08:42:52.742Z,3.85
2017-10-09T08:45:20.462Z,3.70
2017-10-09T08:47:49.357Z,3.75
2017-10-09T08:50:17.596Z,3.40
2017-10-09T08:52:47.005Z,4.10
2017-10-09T08:55:16.131Z,4.15
2017-10-09T08:57:44.979Z,4.65
2017-10-09T09:00:15.211Z,5.65
2017-10-09T09:02:44.599Z,4.60
2017-10-09T09:05:12.816Z,3.97
2017-10-09T09:07:43.080Z,4.62
2017-10-09T09:10:11.617Z,4.40
2017-10-09T09:12:39.788Z,5.53
2017-10-09T09:15:09.456Z,4.40
2017-10-09T09:17:37.131Z,5.75
2017-10-09T09:20:05.545Z,4.93
2017-10-09T09:22:33.511Z,3.92
2017-10-09T09:25:01.626Z,5.00
2017-10-09T09:27:29.864Z,4.70
2017-10-09T09:29:58.887Z,4.65
2017-10-09T09:32:27.498Z,4.03
2017-10-09T09:35:00.736Z,4.30
2017-10-09T09:37:29.095Z,4.70
2017-10-09T09:42:30.281Z,4.07
2017-10-09T09:44:58.413Z,5.00
2017-10-09T09:47:28.337Z,4.62
2017-10-09T09:49:56.119Z,3.97
2017-10-09T09:52:28.050Z,6.00
2017-10-09T09:54:56.623Z,4.47
2017-10-09T09:57:24.432Z,4.75
2017-10-09T09:59:53.930Z,3.95
2017-10-09T10:02:23.315Z,3.62
2017-10-09T10:04:51.070Z,5.45
2017-10-09T10:07:18.540Z,4.30
2017-10-09T10:09:46.010Z,5.85
2017-10-09T10:12:13.471Z,6.25
2017-10-09T10:14:40.954Z,6.32
2017-10-09T10:17:08.426Z,5.03
2017-10-09T10:19:36.465Z,5.75
2017-10-09T10:22:04.199Z,5.43
2017-10-09T10:24:32.063Z,5.87
2017-10-09T10:26:59.781Z,4.85
2017-10-09T10:29:27.413Z,5.90
2017-10-09T10:31:55.197Z,5.70
2017-10-09T10:34:22.707Z,5.78
2017-10-09T10:36:50.967Z,5.68
2017-10-09T10:39:18.635Z,5.25
2017-10-09T10:41:46.275Z,4.30
2017-10-09T10:44:13.818Z,5.20
2017-10-09T10:46:41.543Z,5.12
2017-10-09T10:49:09.046Z,4.28
2017-10-09T10:51:36.503Z,3.97
2017-10-09T10:54:03.959Z,4.25
2017-10-09T10:56:31.430Z,3.70
2017-10-09T10:58:58.893Z,3.95
2017-10-09T11:01:26.343Z,3.97
2017-10-09T11:03:53.794Z,4.20
2017-10-09T11:06:21.254Z,3.62
2017-10-09T11:08:48.709Z,3.20
2017-10-09T11:11:16.150Z,3.05
2017-10-09T11:13:43.632Z,2.62
2017-10-09T11:16:11.098Z,2.97
2017-10-09T11:18:38.542Z,2.87
2017-10-09T11:21:05.998Z,3.15
2017-10-09T11:23:33.457Z,3.28
2017-10-09T11:26:00.943Z,2.83
2017-10-09T11:28:28.638Z,2.67
2017-10-09T11:30:56.160Z,2.70
2017-10-09T11:33:23.904Z,2.90
2017-10-09T11:35:51.527Z,2.70
2017-10-09T11:38:19.155Z,3.10
2017-10-09T11:40:47.139Z,2.60
2017-10-09T11:43:14.871Z,3.22
2017-10-09T11:45:42.626Z,2.78
2017-10-09T11:48:10.256Z,2.37
2017-10-09T11:50:37.925Z,2.60
2017-10-09T11:53:05.403Z,2.53
2017-10-09T11:55:32.895Z,2.80
2017-10-09T11:58:00.337Z,2.50
2017-10-09T12:00:27.811Z,2.45
2017-10-09T12:02:55.314Z,2.83
2017-10-09T12:05:22.823Z,2.78
2017-10-09T12:07:50.287Z,2.85
2017-10-09T12:10:17.806Z,3.15
2017-10-09T12:12:45.288Z,2.33
2017-10-09T12:15:13.544Z,2.10
2017-10-09T12:20:14.916Z,2.70
2017-10-09T12:22:43.401Z,3.60
2017-10-09T12:25:10.934Z,3.62
2017-10-09T12:27:38.470Z,3.03
2017-10-09T12:30:05.978Z,3.05
2017-10-09T12:32:33.425Z,2.33
2017-10-09T12:35:00.905Z,2.92
2017-10-09T12:37:28.363Z,2.75
2017-10-09T12:39:55.830Z,3.22
2017-10-09T12:42:24.427Z,4.10
2017-10-09T12:44:51.878Z,2.58
2017-10-09T12:47:19.315Z,3.20
2017-10-09T12:49:46.803Z,2.70
2017-10-09T12:52:14.285Z,3.00
2017-10-09T12:54:41.787Z,2.92
2017-10-09T12:57:09.254Z,3.20
2017-10-09T12:59:36.734Z,3.60
2017-10-09T13:02:04.238Z,3.35
2017-10-09T13:04:31.695Z,2.67
2017-10-09T13:06:59.191Z,2.80
2017-10-09T13:09:26.723Z,3.40
2017-10-09T13:11:54.952Z,3.37
2017-10-09T13:14:22.423Z,2.70
2017-10-09T13:16:49.923Z,2.50
2017-10-09T13:19:18.193Z,2.85
2017-10-09T13:21:45.704Z,2.92
2017-10-09T13:24:13.194Z,3.45
2017-10-09T13:26:41.443Z,2.67
2017-10-09T13:29:09.046Z,2.42
2017-10-09T13:31:38.447Z,3.22
2017-10-09T13:34:05.950Z,2.83
2017-10-09T13:36:33.471Z,2.87
2017-10-09T13:39:01.030Z,2.72
2017-10-09T13:41:32.902Z,2.55
2017-10-09T13:44:00.439Z,2.90
2017-10-09T13:46:27.975Z,2.30
2017-10-09T13:48:55.438Z,2.53
2017-10-09T13:51:24.243Z,2.15
2017-10-09T13:53:51.788Z,2.25
2017-10-09T13:56:19.233Z,1.87
2017-10-09T13:58:46.690Z,2.12
2017-10-09T14:01:14.156Z,2.75
2017-10-09T14:03:42.423Z,2.03
2017-10-09T14:06:10.619Z,2.20
2017-10-09T14:08:38.850Z,2.40
2017-10-09T14:11:07.442Z,2.20
2017-10-09T14:13:34.910Z,2.40
2017-10-09T14:16:02.360Z,2.60
2017-10-09T14:18:29.836Z,2.70
2017-10-09T14:20:57.322Z,2.40
2017-10-09T14:23:24.951Z,2.20
2017-10-09T14:25:52.545Z,3.45
2017-10-09T14:28:20.408Z,3.15
2017-10-09T14:30:47.972Z,3.72
2017-10-09T14:40:37.936Z,2.90
2017-10-09T14:43:05.406Z,2.50
2017-10-09T14:45:32.917Z,2.10
2017-10-09T14:48:01.880Z,2.30
2017-10-09T14:50:30.234Z,2.28
2017-10-09T14:53:00.102Z,2.80
2017-10-09T14:55:27.801Z,2.22
2017-10-09T14:57:56.412Z,2.40
2017-10-09T15:00:23.919Z,2.75
2017-10-09T15:02:51.473Z,4.35
2017-10-09T15:05:19.064Z,3.60
2017-10-09T15:07:48.284Z,13.43
2017-10-09T15:10:15.748Z,2.80
2017-10-09T15:12:43.224Z,12.65
2017-10-09T15:15:10.699Z,26.85
2017-10-09T15:17:38.994Z,2.97
2017-10-09T15:20:07.681Z,2.22
2017-10-09T15:22:41.576Z,2.90
2017-10-09T15:25:09.268Z,6.95
2017-10-09T15:27:40.718Z,2.92
2017-10-09T15:30:29.136Z,3.53
2017-10-09T15:40:45.116Z,3.85
2017-10-09T15:43:13.384Z,3.78
2017-10-09T15:45:41.170Z,3.95
2017-10-09T17:10:21.108Z,5.12
2017-10-09T17:12:48.597Z,4.50
2017-10-09T17:15:16.244Z,4.62
2017-10-09T17:17:43.710Z,5.37
2017-10-09T17:20:11.210Z,6.47
2017-10-09T17:22:39.476Z,6.37
2017-10-09T17:25:06.932Z,6.68
2017-10-09T17:27:34.491Z,6.78
2017-10-09T17:30:02.763Z,7.95
2017-10-09T17:32:30.334Z,7.50
2017-10-09T17:34:57.796Z,7.55
2017-10-09T17:37:25.309Z,7.97
2017-10-09T17:39:52.777Z,8.55
2017-10-09T17:42:20.318Z,7.95
2017-10-09T17:44:47.854Z,8.77
2017-10-09T17:47:15.366Z,8.48
2017-10-09T17:49:42.927Z,8.98
2017-10-09T17:52:10.405Z,10.40
2017-10-09T17:54:37.954Z,9.82
2017-10-09T17:57:05.422Z,10.70
2017-10-09T17:59:32.978Z,8.15
2017-10-09T18:02:00.591Z,10.45
2017-10-09T18:04:28.089Z,9.15
2017-10-09T18:06:55.639Z,9.70
2017-10-09T18:09:23.163Z,10.15
2017-10-09T18:11:50.691Z,9.40
2017-10-09T18:14:18.240Z,11.12
2017-10-09T18:16:45.795Z,8.80
2017-10-09T18:19:13.305Z,9.93
2017-10-09T18:21:40.806Z,9.30
2017-10-09T18:24:08.274Z,10.30
2017-10-09T18:26:35.728Z,9.77
2017-10-09T18:29:03.278Z,10.95
2017-10-09T18:31:30.772Z,8.77
2017-10-09T18:33:58.276Z,9.55
2017-10-09T18:36:26.518Z,9.32
2017-10-09T18:38:54.014Z,10.55
2017-10-09T18:41:21.474Z,9.35
2017-10-09T18:43:48.988Z,9.25
2017-10-09T18:46:16.478Z,8.75
2017-10-09T18:48:44.709Z,8.38
2017-10-09T18:51:12.327Z,9.50
2017-10-09T18:53:39.782Z,10.13
2017-10-09T18:56:07.290Z,10.48
2017-10-09T18:58:34.765Z,8.93
2017-10-09T19:01:02.368Z,10.95
2017-10-09T19:03:29.863Z,9.95
2017-10-09T19:05:57.331Z,9.95
2017-10-09T19:08:24.817Z,10.35
2017-10-09T19:10:52.266Z,9.85
2017-10-09T19:13:19.751Z,9.30
2017-10-09T19:15:47.337Z,10.25
2017-10-09T19:18:14.847Z,10.32
2017-10-09T19:20:42.409Z,10.43
2017-10-09T19:23:09.974Z,11.05
2017-10-09T19:25:37.541Z,10.65
2017-10-09T19:28:04.986Z,10.35
2017-10-09T19:30:33.222Z,10.18
2017-10-09T19:33:00.730Z,11.23
2017-10-09T19:35:28.245Z,10.80
2017-10-09T19:37:56.300Z,12.00
2017-10-09T19:40:23.809Z,10.38
2017-10-09T19:42:52.079Z,10.88
2017-10-09T19:45:19.652Z,11.75
2017-10-09T19:47:47.174Z,11.82
2017-10-09T19:50:14.848Z,10.70
2017-10-09T19:52:42.306Z,10.80
2017-10-09T19:55:09.773Z,11.30
2017-10-09T19:57:38.353Z,11.60
2017-10-09T20:00:05.930Z,11.30
2017-10-09T20:02:33.434Z,10.20
2017-10-09T20:05:00.922Z,12.02
2017-10-09T20:07:28.389Z,12.23
2017-10-09T20:09:55.855Z,11.63
2017-10-09T20:12:23.981Z,12.02
2017-10-09T20:14:51.458Z,13.02
2017-10-09T20:17:18.943Z,13.30
2017-10-09T20:19:47.178Z,12.85
2017-10-09T20:22:14.658Z,12.65
2017-10-09T20:24:42.129Z,14.40
2017-10-09T20:27:09.635Z,13.75
2017-10-09T20:29:37.130Z,12.73
2017-10-09T20:32:05.425Z,11.52
2017-10-09T20:34:32.939Z,11.85
2017-10-09T20:37:00.403Z,11.80
2017-10-09T20:39:27.890Z,12.55
2017-10-09T20:41:55.413Z,12.65
2017-10-09T20:44:23.232Z,11.63
2017-10-09T20:46:50.722Z,13.02
2017-10-09T20:49:18.232Z,13.48
2017-10-09T20:51:45.779Z,11.23
2017-10-09T20:54:14.011Z,10.27
2017-10-09T20:56:41.600Z,12.70
2017-10-09T20:59:09.099Z,14.07
2017-10-09T21:01:36.541Z,11.55
2017-10-09T21:04:04.121Z,11.40
2017-10-09T21:06:31.613Z,11.80
2017-10-09T21:08:59.098Z,11.15
2017-10-09T21:11:26.573Z,11.90
2017-10-09T21:13:54.074Z,10.75
2017-10-09T21:16:21.618Z,9.90
2017-10-09T21:18:49.142Z,9.80
2017-10-09T21:21:16.811Z,9.75
2017-10-09T21:23:45.187Z,9.70
2017-10-09T21:26:12.645Z,9.00
2017-10-09T21:28:40.111Z,9.45
2017-10-09T21:31:07.550Z,8.98
2017-10-09T21:33:35.063Z,11.25
2017-10-09T21:36:02.561Z,9.20
2017-10-09T21:38:30.888Z,9.32
2017-10-09T21:40:58.407Z,9.65
2017-10-09T21:43:26.029Z,9.23
2017-10-09T21:45:53.495Z,9.38
2017-10-09T21:48:21.031Z,9.52
2017-10-09T21:50:48.506Z,9.10
2017-10-09T21:53:15.983Z,9.25
2017-10-09T21:55:43.437Z,9.35
2017-10-09T21:58:10.909Z,8.98
2017-10-09T22:00:38.477Z,8.70
2017-10-09T22:03:05.995Z,9.60
2017-10-09T22:05:33.470Z,9.55
2017-10-09T22:08:00.933Z,9.65
2017-10-09T22:10:29.180Z,9.52
2017-10-09T22:12:56.686Z,9.95
2017-10-09T22:15:24.146Z,9.77
2017-10-09T22:20:30.303Z,8.98
2017-10-09T22:22:58.536Z,8.52
2017-10-09T22:25:26.055Z,8.57
2017-10-09T22:27:53.514Z,9.13
2017-10-09T22:30:20.967Z,9.02
2017-10-09T22:32:48.435Z,10.63
2017-10-09T22:35:15.885Z,9.68
2017-10-09T22:37:43.409Z,10.25
2017-10-09T22:40:10.886Z,10.25
2017-10-09T22:42:38.345Z,9.50
2017-10-09T22:45:05.920Z,11.40
2017-10-09T22:47:33.471Z,10.18
2017-10-09T22:50:01.810Z,10.95
2017-10-09T22:52:29.306Z,10.30
2017-10-09T22:54:56.829Z,10.05
2017-10-09T22:57:24.298Z,10.27
2017-10-09T22:59:51.827Z,10.50
2017-10-09T23:02:19.394Z,11.20
2017-10-09T23:04:46.996Z,10.75
2017-10-09T23:07:14.616Z,9.40
2017-10-09T23:09:42.102Z,9.20
2017-10-09T23:12:10.381Z,10.25
2017-10-09T23:14:38.418Z,9.38
2017-10-09T23:17:05.902Z,9.40
2017-10-09T23:19:33.356Z,8.90
2017-10-09T23:22:00.843Z,10.50
2017-10-09T23:24:28.310Z,10.00
2017-10-09T23:26:55.759Z,9.00
2017-10-09T23:29:23.225Z,9.80
2017-10-09T23:31:50.682Z,10.10
2017-10-09T23:34:18.135Z,9.32
2017-10-09T23:36:45.595Z,10.18
2017-10-09T23:39:13.062Z,10.70
2017-10-09T23:41:40.519Z,10.90
2017-10-09T23:44:07.970Z,11.75
2017-10-09T23:46:35.427Z,10.80
2017-10-09T23:49:02.891Z,10.07
2017-10-09T23:51:30.340Z,11.60
2017-10-09T23:53:57.803Z,12.77
2017-10-09T23:56:25.257Z,12.25
2017-10-09T23:58:52.721Z,11.95
